Brandenburg, KY (40108)

12:30 PM EST on February 09, 2016 (GMT -0500)
Old Weldon | | Change Station
CLOSE
Current Station
Personal Weather Station
Location: Brandenburg, KY
Elevation: 636 ft
Nearby Weather Stations
Active Advisory: Winter Weather Advisory Active Notice: Public Information Statement

Elev 636 ft 37.97 °N, 86.13 °W | Updated 28 seconds ago

Snow
Snow
23.3 °F
Feels Like 17 °F
N
5.0
Wind Variable Wind from NW
Gusts 7.0 mph

Today
High -- | Low -- °F
--% Chance of Precip.
Yesterday
High -- | Low -- °F
Precip. -- in
Pressure 29.84 in
Visibility 7.0 miles
Clouds Mostly Cloudy 2000 ft
Overcast 2700 ft
Windchill 17 °F
Dew Point 18 °F
Humidity 79%
Rainfall 0.00 in
Snow Depth Not available.
7:41 AM 6:16 PM
New Moon, 2% visible
SPECI KFTK 091728Z AUTO 26007KT 7SM -SN BKN020 OVC027 M05/M09 A2984 RMK AO2 SNE08SNB18
Pressure 29.84 in
Visibility 7.0 miles
Clouds Mostly Cloudy 2000 ft
Overcast 2700 ft
Windchill 17 °F
Dew Point 18 °F
Humidity 79%
Rainfall 0.00 in
Snow Depth Not available.
7:41 AM 6:16 PM
New Moon, 2% visible
SPECI KFTK 091728Z AUTO 26007KT 7SM -SN BKN020 OVC027 M05/M09 A2984 RMK AO2 SNE08SNB18

10-Day Weather Forecast

Almanac

Astronomy

Feb. 09, 2016 Rise Set
Actual Time
Civil Twilight
Nautical Twilight
Astronomical Twilight
Moon
Length of Visible Light
Length of Day
Tomorrow will be .
, % of the Moon is Illuminated

Today's Extremes

State Highs State Lows

Community

WunderPhotos

Upload Photos

1,891,637 photos uploaded!

WunderBlog® & News

Nearby

Air Quality

  Air Quality AQ Index Pollutant
Not available.

Snow Depth

Station Depth Elevation

Earthquake Activity

City Distance Mag. Time & Date
Minimum magnitude displayed is 2.5.

Coastal Water Temperatures

Place Temperature

Stations

Nearby Weather Stations

Station Location Temp. Windchill Dew Point Humidity Wind Precip. Elev Updated Type
                   

Watches & Warnings

Winter Weather Advisory
Issued: 9:52 AM CST Feb. 9, 2016 – National Weather Service

... Winter Weather Advisory remains in effect until 10 am EST
/9 am CST/ Wednesday...

* timing... intermittent snow showers... the greatest intensity
expected this afternoon and early evening.

* Main impact... light snow and periods of moderate snow showers
will impact travel. Roads will remain or become slick and snow
covered... especially secondary and untreated surfaces. An
additional 1 inch of accumulation is expected.

* Other impacts... gusty winds may reduce visibility at times.
Lingering moisture from Monday has frozen... creating a layer
of ice underneath the freshly fallen snow.

Precautionary/preparedness actions...

Research shows that more traffic accidents occur with an inch or
less of snow... before drivers realize that traction is reduced.
Don't become a statistic... slow down and leave extra distance
between vehicles.



Bjs